Time;durP1;ratioP1;P1;durP2;ratioP2;P2;SDS_P1;SDS_P2;PMS_P1;PMS_P2;Temp;Humidity;BMP_temperature;BMP_pressure;BME280_temperature;BME280_humidity;BME280_pressure;Samples;Min_cycle;Max_cycle;Signal;HPM_P1;HPM_P2
2023/03/15 00:01:26;;;;;;;;;2.33;1.00;;;;;21.92;40.39;101454.69;5056188;28;45412;-74
2023/03/15 00:03:53;;;;;;;;;2.00;2.00;;;;;22.00;40.04;101475.91;5056097;28;46158;-74
2023/03/15 00:06:19;;;;;;;;;1.33;1.33;;;;;22.00;40.10;101470.59;5055909;28;45435;-74
2023/03/15 00:08:46;;;;;;;;;3.00;1.00;;;;;21.98;39.97;101469.13;5055993;28;45412;-74
2023/03/15 00:11:15;;;;;;;;;2.00;2.00;;;;;21.93;40.50;101461.66;5056216;28;45417;-74
2023/03/15 00:13:40;;;;;;;;;2.50;1.75;;;;;21.95;40.57;101471.09;5055546;28;46151;-74
2023/03/15 00:16:06;;;;;;;;;2.33;2.33;;;;;21.93;40.34;101470.44;5037679;28;45926;-74
2023/03/15 00:18:31;;;;;;;;;2.33;1.00;;;;;21.95;40.17;101470.28;5056052;28;45396;-73
2023/03/15 00:20:57;;;;;;;;;3.33;3.33;;;;;21.93;39.98;101475.75;5056115;28;45288;-74
2023/03/15 00:23:23;;;;;;;;;3.00;2.33;;;;;21.92;39.91;101479.38;5055343;28;47392;-74
2023/03/15 00:25:50;;;;;;;;;2.00;2.00;;;;;21.92;40.28;101484.66;5055555;28;45364;-74
2023/03/15 00:28:17;;;;;;;;;2.00;2.00;;;;;21.90;39.77;101481.38;5055592;28;45261;-74
2023/03/15 00:30:43;;;;;;;;;2.00;2.00;;;;;21.82;40.18;101470.72;5055607;28;45241;-74
2023/03/15 00:33:12;;;;;;;;;3.33;2.67;;;;;21.91;39.68;101487.50;5055513;28;46186;-74
2023/03/15 00:35:42;;;;;;;;;3.00;2.00;;;;;21.82;39.68;101470.72;5055200;28;45407;-74
2023/03/15 00:38:08;;;;;;;;;1.33;1.33;;;;;21.90;39.67;101485.81;5055669;28;45334;-74
2023/03/15 00:40:35;;;;;;;;;3.00;2.00;;;;;21.89;39.70;101490.28;5055610;28;45391;-74
2023/03/15 00:43:02;;;;;;;;;1.00;1.00;;;;;21.90;39.66;101488.47;5054958;28;46971;-74
2023/03/15 00:45:27;;;;;;;;;2.33;2.33;;;;;21.89;39.69;101492.09;5055509;28;45395;-74
2023/03/15 00:47:53;;;;;;;;;3.33;3.00;;;;;21.83;39.98;101481.13;5037363;28;45346;-74
2023/03/15 00:50:21;;;;;;;;;3.00;3.00;;;;;21.87;40.18;101494.94;5055478;28;45337;-74
2023/03/15 00:52:47;;;;;;;;;3.00;2.00;;;;;21.87;40.10;101492.28;5055166;28;46320;-74
2023/03/15 00:55:16;;;;;;;;;3.67;3.00;;;;;21.87;39.86;101500.22;5055327;28;45273;-74
2023/03/15 00:57:43;;;;;;;;;1.00;1.00;;;;;21.83;39.64;101485.63;5054859;28;45343;-74
2023/03/15 01:00:11;;;;;;;;;2.00;2.00;;;;;21.85;39.99;101492.44;5055433;28;45384;-74
2023/03/15 01:02:37;;;;;;;;;1.67;1.33;;;;;21.83;39.68;101493.59;5054806;28;45440;-74
2023/03/15 01:05:07;;;;;;;;;2.00;2.00;;;;;21.84;39.46;101485.47;5055113;28;45249;-74
2023/03/15 01:07:33;;;;;;;;;2.00;2.00;;;;;21.83;40.19;101490.94;5055335;28;45409;-74
2023/03/15 01:10:03;;;;;;;;;2.00;1.00;;;;;21.82;39.88;101491.91;5055126;28;45424;-74
2023/03/15 01:12:31;;;;;;;;;3.00;3.00;;;;;21.81;39.97;101492.88;5054825;28;46334;-75
2023/03/15 01:14:56;;;;;;;;;4.00;3.00;;;;;21.82;39.71;101499.84;5054989;28;45408;-74
2023/03/15 01:17:22;;;;;;;;;2.00;1.67;;;;;21.80;39.30;101494.72;5055170;28;45371;-74
2023/03/15 01:19:48;;;;;;;;;2.00;2.00;;;;;21.81;39.76;101500.84;5054876;28;45388;-74
2023/03/15 01:22:13;;;;;;;;;2.00;2.00;;;;;21.81;39.79;101499.03;5055093;28;46054;-74
2023/03/15 01:24:39;;;;;;;;;5.00;3.00;;;;;21.81;39.34;101498.19;5054881;28;45352;-74
2023/03/15 01:27:04;;;;;;;;;3.00;1.00;;;;;21.81;39.25;101508.78;5054666;28;45392;-74
2023/03/15 01:29:29;;;;;;;;;2.00;2.00;;;;;21.79;39.72;101503.66;5054879;28;45512;-74
2023/03/15 01:31:55;;;;;;;;;3.00;3.00;;;;;21.82;39.63;101507.81;5054657;28;46663;-74
2023/03/15 01:34:20;;;;;;;;;1.00;1.00;;;;;21.81;39.59;101508.78;5054867;28;45377;-74
2023/03/15 01:36:50;;;;;;;;;1.67;1.67;;;;;21.80;39.23;101505.31;5058440;28;45255;-74
2023/03/15 01:39:16;;;;;;;;;3.00;2.50;;;;;21.79;39.33;101498.38;5058405;28;45375;-74
2023/03/15 01:41:41;;;;;;;;;3.00;3.00;;;;;21.80;39.36;101501.84;5057727;28;45416;-74
2023/03/15 01:44:13;;;;;;;;;2.00;2.00;;;;;21.75;39.06;101494.41;5058344;28;45350;-74
2023/03/15 01:46:40;;;;;;;;;2.00;2.00;;;;;21.80;39.21;101509.78;5058472;28;45222;-74
2023/03/15 01:49:29;;;;;;;;;2.00;2.00;;;;;21.80;39.04;101515.09;5058309;28;45430;-74
2023/03/15 01:52:03;;;;;;;;;3.00;3.00;;;;;21.80;39.59;101509.78;5058126;28;46274;-74
2023/03/15 01:54:39;;;;;;;;;1.50;1.50;;;;;21.80;39.43;101507.13;5057690;28;45524;-73
2023/03/15 01:57:12;;;;;;;;;2.75;2.75;;;;;21.79;39.37;101508.97;5058374;28;45222;-74
2023/03/15 01:59:46;;;;;;;;;3.00;3.00;;;;;21.68;39.03;101491.53;5057952;28;45443;-74
2023/03/15 02:02:13;;;;;;;;;3.75;3.75;;;;;21.70;39.28;101494.06;5039567;28;47208;-74
2023/03/15 02:04:47;;;;;;;;;3.00;2.00;;;;;21.78;38.80;101504.63;5057911;28;45368;-74
2023/03/15 02:07:16;;;;;;;;;2.00;2.00;;;;;21.72;39.47;101492.06;5058035;28;45353;-74
2023/03/15 02:09:51;;;;;;;;;3.33;3.33;;;;;21.69;38.94;101479.13;5057695;28;45579;-74
2023/03/15 02:12:17;;;;;;;;;2.75;2.75;;;;;21.78;39.26;101502.00;5057828;28;46360;-74
2023/03/15 02:14:44;;;;;;;;;3.00;2.00;;;;;21.77;39.29;101491.56;5057924;28;45375;-74
2023/03/15 02:17:09;;;;;;;;;5.00;2.00;;;;;21.77;39.07;101496.88;5057831;28;45221;-74
2023/03/15 02:19:53;;;;;;;;;3.33;3.33;;;;;21.77;39.05;101496.88;5039551;28;45378;-74
2023/03/15 02:22:41;;;;;;;;;3.00;2.00;;;;;21.76;39.25;101492.53;5057605;28;45201;-74
2023/03/15 02:25:18;;;;;;;;;2.00;2.00;;;;;21.74;38.85;101500.66;5057315;28;45445;-74
2023/03/15 02:27:44;;;;;;;;;2.33;2.33;;;;;21.73;39.12;101496.34;5039810;28;45405;-74
2023/03/15 02:30:10;;;;;;;;;2.00;2.00;;;;;21.73;39.24;101493.69;5057503;28;46104;-74
2023/03/15 02:32:36;;;;;;;;;1.33;1.33;;;;;21.72;39.41;101486.75;5057433;28;46449;-74
2023/03/15 02:35:01;;;;;;;;;2.25;2.00;;;;;21.72;38.72;101497.34;5057085;28;45359;-74
2023/03/15 02:37:26;;;;;;;;;3.00;2.00;;;;;21.72;38.92;101500.84;5057778;28;45277;-74
2023/03/15 02:39:52;;;;;;;;;3.00;2.00;;;;;21.71;39.19;101501.81;5057156;28;45555;-74
2023/03/15 02:42:18;;;;;;;;;3.00;2.00;;;;;21.71;38.75;101503.63;5057370;28;45306;-74
2023/03/15 02:44:45;;;;;;;;;3.50;2.75;;;;;21.71;38.69;101514.22;5057288;28;45380;-74
2023/03/15 02:47:26;;;;;;;;;2.75;2.75;;;;;21.71;38.94;101506.28;5057340;28;45318;-74
2023/03/15 02:49:52;;;;;;;;;3.00;1.67;;;;;21.70;39.22;101502.00;5057432;28;45330;-74
2023/03/15 02:52:19;;;;;;;;;2.67;2.67;;;;;21.68;39.11;101502.13;5057050;28;46341;-74
2023/03/15 02:54:45;;;;;;;;;3.33;3.33;;;;;21.63;38.81;101494.69;5056715;28;45419;-74
2023/03/15 02:57:15;;;;;;;;;4.75;3.25;;;;;21.68;39.31;101509.25;5057123;28;45329;-74
2023/03/15 02:59:43;;;;;;;;;3.33;2.00;;;;;21.68;39.05;101507.44;5057278;28;45316;-74
2023/03/15 03:02:12;;;;;;;;;5.67;4.00;;;;;21.68;38.84;101511.91;5056904;28;45311;-74
2023/03/15 03:04:40;;;;;;;;;2.00;1.67;;;;;21.67;38.48;101513.75;5057262;28;45440;-74
2023/03/15 03:07:05;;;;;;;;;3.00;2.00;;;;;21.67;38.84;101503.16;5056651;28;45388;-74
2023/03/15 03:09:31;;;;;;;;;2.67;2.00;;;;;21.68;38.60;101496.00;5057146;28;45369;-74
2023/03/15 03:11:56;;;;;;;;;2.00;2.00;;;;;21.62;38.93;101486.91;5056993;28;46279;-74
2023/03/15 03:14:25;;;;;;;;;3.25;3.00;;;;;21.65;38.91;101496.34;5056974;28;45387;-73
2023/03/15 03:16:51;;;;;;;;;3.33;2.00;;;;;21.69;39.00;101514.41;5057227;28;45356;-74
2023/03/15 03:19:17;;;;;;;;;3.00;2.00;;;;;21.70;38.58;101523.19;5056796;28;45345;-73
2023/03/15 03:21:43;;;;;;;;;1.00;1.00;;;;;21.61;38.40;101509.91;5056393;28;45424;-74
2023/03/15 03:24:09;;;;;;;;;2.00;2.00;;;;;21.69;39.01;101517.06;5056684;28;45363;-74
2023/03/15 03:26:36;;;;;;;;;2.00;2.00;;;;;21.69;38.42;101509.09;5056959;28;45285;-74
2023/03/15 03:29:04;;;;;;;;;1.00;1.00;;;;;21.66;38.88;101519.19;5056964;28;45297;-74
2023/03/15 03:31:32;;;;;;;;;3.00;3.00;;;;;21.68;38.49;101527.78;5056884;28;46033;-74
2023/03/15 03:33:58;;;;;;;;;2.00;1.67;;;;;21.68;38.52;101541.03;5056708;28;45464;-73
2023/03/15 03:36:24;;;;;;;;;2.67;2.00;;;;;21.68;38.92;101554.28;5056323;28;45404;-74
2023/03/15 03:38:50;;;;;;;;;1.00;1.00;;;;;21.67;38.48;101545.53;5056637;28;45384;-74
2023/03/15 03:41:16;;;;;;;;;2.00;2.00;;;;;21.67;38.48;101544.69;5056594;28;45380;-74
2023/03/15 03:43:42;;;;;;;;;3.00;2.33;;;;;21.61;38.98;101539.03;5056865;28;45447;-74
2023/03/15 03:46:07;;;;;;;;;2.00;2.00;;;;;21.67;38.84;101552.63;5039103;28;45389;-73
2023/03/15 03:48:33;;;;;;;;;2.00;2.00;;;;;21.64;39.00;101545.84;5056882;28;45398;-73
2023/03/15 03:50:58;;;;;;;;;2.75;1.75;;;;;21.60;38.41;101541.84;5056218;28;45898;-74
2023/03/15 03:53:24;;;;;;;;;1.50;1.00;;;;;21.66;38.92;101540.38;5056501;28;45389;-73
2023/03/15 03:55:50;;;;;;;;;2.00;2.00;;;;;21.55;38.78;101523.78;5056589;28;45276;-73
2023/03/15 03:58:15;;;;;;;;;4.50;4.00;;;;;21.59;38.51;101530.44;5055783;28;45325;-73
2023/03/15 04:00:40;;;;;;;;;2.75;2.75;;;;;21.62;38.38;101537.22;5056332;28;47047;-74
2023/03/15 04:03:06;;;;;;;;;1.67;1.67;;;;;21.63;38.59;101529.09;5056291;28;45344;-74
2023/03/15 04:05:32;;;;;;;;;3.33;3.00;;;;;21.63;38.59;101526.47;5056542;28;45266;-73
2023/03/15 04:07:57;;;;;;;;;2.00;2.00;;;;;21.63;38.82;101528.28;5056571;28;45472;-74
2023/03/15 04:10:25;;;;;;;;;3.50;2.00;;;;;21.63;38.72;101525.63;5056170;28;47210;-74
2023/03/15 04:12:52;;;;;;;;;2.00;2.00;;;;;21.56;38.75;101514.03;5055837;28;45277;-74
2023/03/15 04:15:18;;;;;;;;;2.00;2.00;;;;;21.59;38.41;101517.19;5056140;28;45356;-74
2023/03/15 04:17:43;;;;;;;;;3.00;2.00;;;;;21.62;38.54;101518.69;5056188;28;45246;-74
2023/03/15 04:20:11;;;;;;;;;1.33;1.33;;;;;21.62;38.71;101530.09;5055568;28;47206;-74
2023/03/15 04:22:37;;;;;;;;;2.00;2.00;;;;;21.62;38.31;101531.94;5055822;28;45332;-74
2023/03/15 04:25:03;;;;;;;;;4.33;3.33;;;;;21.61;38.32;101538.19;5055663;28;45424;-74
2023/03/15 04:27:30;;;;;;;;;1.00;1.00;;;;;21.53;38.31;101523.13;5056288;28;45416;-73
2023/03/15 04:29:55;;;;;;;;;1.67;1.67;;;;;21.60;38.27;101537.38;5037940;28;48135;-74
2023/03/15 04:32:21;;;;;;;;;3.00;3.00;;;;;21.61;38.79;101524.97;5055918;28;45667;-74
2023/03/15 04:34:50;;;;;;;;;2.67;2.00;;;;;21.48;38.26;101502.44;5055434;28;45326;-73
2023/03/15 04:37:16;;;;;;;;;2.67;1.00;;;;;21.57;38.58;101527.09;5055272;28;45368;-74
2023/03/15 04:39:41;;;;;;;;;2.33;2.00;;;;;21.62;38.23;101538.03;5055542;28;46159;-74
2023/03/15 04:42:07;;;;;;;;;2.00;2.00;;;;;21.57;38.49;101518.34;5055521;28;45306;-73
2023/03/15 04:44:32;;;;;;;;;1.67;1.67;;;;;21.61;38.20;101531.09;5056063;28;45881;-74
2023/03/15 04:46:58;;;;;;;;;1.00;1.00;;;;;21.62;38.22;101540.69;5056093;28;45448;-73
2023/03/15 04:49:23;;;;;;;;;1.00;1.00;;;;;21.62;38.56;101550.47;5055403;28;46262;-74
2023/03/15 04:51:49;;;;;;;;;1.00;1.00;;;;;21.62;38.08;101561.06;5037696;28;45804;-74
2023/03/15 04:54:14;;;;;;;;;2.00;1.00;;;;;21.63;38.42;101558.25;5055914;28;45413;-74
2023/03/15 04:56:40;;;;;;;;;2.00;2.00;;;;;21.61;38.25;101560.22;5055943;28;45378;-74
2023/03/15 04:59:07;;;;;;;;;2.50;2.50;;;;;21.60;38.15;101561.19;5055505;28;46174;-73
2023/03/15 05:01:32;;;;;;;;;1.33;1.33;;;;;21.62;38.32;101556.56;5055506;28;45311;-73
2023/03/15 05:03:58;;;;;;;;;1.67;1.67;;;;;21.61;37.93;101554.09;5055106;28;45345;-74
2023/03/15 05:06:23;;;;;;;;;0.33;0.33;;;;;21.61;38.39;101548.81;5054633;28;45249;-74
2023/03/15 05:08:49;;;;;;;;;1.00;1.00;;;;;21.61;38.62;101554.94;5053638;28;45384;-74
2023/03/15 05:11:15;;;;;;;;;2.00;2.00;;;;;21.61;38.17;101562.03;5054777;28;45510;-74
2023/03/15 05:13:40;;;;;;;;;2.00;2.00;;;;;21.60;38.40;101557.72;5055145;28;45557;-74
2023/03/15 05:16:06;;;;;;;;;0.67;0.67;;;;;21.59;38.43;101559.56;5055343;28;45355;-73
2023/03/15 05:18:32;;;;;;;;;2.33;2.33;;;;;21.50;38.45;101544.63;5054942;28;46125;-74
2023/03/15 05:20:57;;;;;;;;;1.00;1.00;;;;;21.60;37.84;101568.31;5055143;28;45360;-74
2023/03/15 05:23:23;;;;;;;;;1.00;1.00;;;;;21.58;37.92;101563.19;5055312;28;45429;-74
2023/03/15 05:25:53;;;;;;;;;2.00;2.00;;;;;21.57;38.10;101566.00;5055173;28;45399;-73
2023/03/15 05:28:20;;;;;;;;;1.75;1.75;;;;;21.56;38.44;101578.41;5055026;28;45314;-74
2023/03/15 05:30:46;;;;;;;;;5.33;2.00;;;;;21.57;38.39;101588.00;5054634;28;45459;-74
2023/03/15 05:33:11;;;;;;;;;1.33;1.33;;;;;21.52;38.10;101577.06;5054901;28;45355;-74
2023/03/15 05:35:37;;;;;;;;;1.33;1.33;;;;;21.56;38.16;101574.94;5054838;28;45471;-73
2023/03/15 05:38:03;;;;;;;;;2.67;1.67;;;;;21.57;38.12;101581.91;5054675;28;45332;-74
2023/03/15 05:40:29;;;;;;;;;1.33;1.33;;;;;21.56;38.18;101573.13;5054691;28;45489;-74
2023/03/15 05:42:55;;;;;;;;;1.00;1.00;;;;;21.56;37.96;101578.41;5054617;28;45415;-74
2023/03/15 05:45:21;;;;;;;;;2.00;2.00;;;;;21.48;38.10;101565.13;5054761;28;45346;-74
2023/03/15 05:47:46;;;;;;;;;2.33;2.33;;;;;21.55;38.22;101579.38;5054056;28;46824;-74
2023/03/15 05:50:11;;;;;;;;;2.00;2.00;;;;;21.56;38.39;101588.16;5054529;28;45275;-74
2023/03/15 05:52:37;;;;;;;;;1.00;1.00;;;;;21.55;37.91;101584.69;5054637;28;45279;-73
2023/03/15 05:55:02;;;;;;;;;4.00;1.00;;;;;21.55;38.02;101591.78;5054694;28;45329;-74
2023/03/15 05:57:28;;;;;;;;;4.67;2.67;;;;;21.55;37.95;101589.97;5054390;28;45455;-73
2023/03/15 05:59:53;;;;;;;;;2.33;2.33;;;;;21.55;37.87;101587.31;5054709;28;45312;-73
2023/03/15 06:02:19;;;;;;;;;0.00;0.00;;;;;21.55;37.96;101592.63;5054337;28;45266;-74
2023/03/15 06:04:44;;;;;;;;;3.00;2.00;;;;;21.56;38.40;101590.81;5054643;28;45230;-74
2023/03/15 06:07:09;;;;;;;;;1.00;1.00;;;;;21.54;38.03;101582.19;5054448;28;45305;-74
2023/03/15 06:09:35;;;;;;;;;2.00;2.00;;;;;21.56;38.29;101581.06;5054482;28;45334;-74
2023/03/15 06:12:00;;;;;;;;;0.33;0.33;;;;;21.57;37.89;101587.19;5054575;28;45463;-73
2023/03/15 06:14:26;;;;;;;;;1.33;1.33;;;;;21.54;38.18;101580.41;5054538;28;45317;-74
2023/03/15 06:16:52;;;;;;;;;2.00;2.00;;;;;21.56;38.22;101580.22;5053448;28;46119;-73
2023/03/15 06:19:18;;;;;;;;;1.33;1.33;;;;;21.57;37.98;101590.66;5054110;28;45484;-74
2023/03/15 06:21:44;;;;;;;;;3.00;1.33;;;;;21.56;38.25;101581.06;5056827;28;45379;-74
2023/03/15 06:24:10;;;;;;;;;3.00;1.00;;;;;21.57;38.05;101587.19;5057678;28;46070;-73
2023/03/15 06:26:35;;;;;;;;;1.67;1.67;;;;;21.56;38.12;101585.53;5057735;28;45464;-74
2023/03/15 06:29:01;;;;;;;;;2.00;2.00;;;;;21.56;37.81;101586.34;5057600;28;45271;-73
2023/03/15 06:31:26;;;;;;;;;1.67;1.67;;;;;21.56;38.03;101594.31;5057311;28;45235;-74
2023/03/15 06:33:51;;;;;;;;;1.00;1.00;;;;;21.56;38.15;101591.66;5057737;28;45378;-74
2023/03/15 06:36:17;;;;;;;;;2.00;2.00;;;;;21.56;38.30;101585.53;5057160;28;46075;-73
2023/03/15 06:38:42;;;;;;;;;4.33;2.33;;;;;21.55;38.25;101589.97;5057432;28;45377;-74
2023/03/15 06:41:08;;;;;;;;;2.00;2.00;;;;;21.54;37.83;101593.63;5039441;28;45488;-73
2023/03/15 06:43:33;;;;;;;;;1.00;1.00;;;;;21.47;38.33;101582.81;5057460;28;45368;-73
2023/03/15 06:45:59;;;;;;;;;1.33;1.33;;;;;21.54;38.22;101593.63;5038667;28;46979;-74
2023/03/15 06:48:25;;;;;;;;;2.00;2.00;;;;;21.54;38.25;101598.09;5057007;28;45407;-74
2023/03/15 06:50:51;;;;;;;;;2.00;2.00;;;;;21.51;37.84;101600.06;5057438;28;45353;-73
2023/03/15 06:53:16;;;;;;;;;2.00;2.00;;;;;21.52;37.84;101599.06;5057342;28;45351;-73
2023/03/15 06:55:42;;;;;;;;;2.00;1.67;;;;;21.53;38.22;101607.84;5057123;28;46820;-74
2023/03/15 06:58:07;;;;;;;;;1.00;1.00;;;;;21.54;37.80;101613.97;5056927;28;45341;-74
2023/03/15 07:00:33;;;;;;;;;1.33;1.33;;;;;21.52;38.04;101627.34;5056810;28;45556;-74
2023/03/15 07:02:58;;;;;;;;;1.00;1.00;;;;;21.54;37.87;101630.69;5056477;28;45570;-74
2023/03/15 07:05:23;;;;;;;;;3.00;1.00;;;;;21.54;37.90;101627.22;5038609;28;48277;-74
2023/03/15 07:07:49;;;;;;;;;1.00;1.00;;;;;21.47;37.88;101627.84;5056762;28;45385;-74
2023/03/15 07:10:14;;;;;;;;;2.00;2.00;;;;;21.53;38.14;101642.28;5057088;28;45316;-73
2023/03/15 07:12:40;;;;;;;;;2.00;1.00;;;;;21.52;37.83;101645.88;5057016;28;45295;-74
2023/03/15 07:15:06;;;;;;;;;2.00;2.00;;;;;21.52;38.42;101654.66;5055665;28;45350;-74
2023/03/15 07:17:31;;;;;;;;;2.00;2.00;;;;;21.51;38.30;101660.97;5056982;28;45312;-73
2023/03/15 07:19:57;;;;;;;;;1.67;1.67;;;;;21.51;38.00;101658.31;5056860;28;45329;-75
2023/03/15 07:22:23;;;;;;;;;1.33;1.33;;;;;21.45;38.43;101653.66;5055543;28;45256;-74
2023/03/15 07:24:48;;;;;;;;;2.00;2.00;;;;;21.54;38.06;101667.78;5055724;28;45446;-72
2023/03/15 07:27:14;;;;;;;;;3.33;2.00;;;;;21.56;38.21;101672.91;5055376;28;45464;-72
2023/03/15 07:29:40;;;;;;;;;1.00;1.00;;;;;21.55;38.12;101671.22;5049691;28;46408;-72
2023/03/15 07:32:05;;;;;;;;;3.33;2.33;;;;;21.56;38.01;101675.53;5057445;28;46155;-73
2023/03/15 07:34:31;;;;;;;;;4.33;2.00;;;;;21.56;38.67;101667.59;5054781;28;46182;-73
2023/03/15 07:36:56;;;;;;;;;2.00;2.00;;;;;21.58;38.28;101669.09;5055710;28;45384;-73
2023/03/15 07:39:22;;;;;;;;;1.00;1.00;;;;;21.60;38.29;101668.94;5056094;28;45353;-75
2023/03/15 07:41:47;;;;;;;;;3.00;3.00;;;;;21.51;36.31;101679.50;5056265;28;45485;-75
2023/03/15 07:44:13;;;;;;;;;7.25;3.75;;;;;21.48;36.17;101681.63;5054845;28;45514;-75
2023/03/15 07:46:38;;;;;;;;;2.00;2.00;;;;;21.45;37.14;101685.41;5024414;28;45775;-76
2023/03/15 07:49:03;;;;;;;;;2.67;2.67;;;;;21.47;37.67;101687.91;5015384;28;45763;-75
2023/03/15 07:51:29;;;;;;;;;2.00;2.00;;;;;21.46;37.31;101680.97;5049890;28;45654;-75
2023/03/15 07:53:54;;;;;;;;;4.00;2.33;;;;;21.54;37.35;101696.91;5050249;28;46864;-73
2023/03/15 07:56:20;;;;;;;;;2.33;2.33;;;;;21.56;37.46;101686.97;5047119;28;45480;-75
2023/03/15 07:58:45;;;;;;;;;6.00;3.33;;;;;21.59;37.56;101680.53;5049208;28;45560;-75
2023/03/15 08:01:10;;;;;;;;;3.00;2.67;;;;;21.61;37.24;101687.34;5050119;28;45866;-75
2023/03/15 08:03:36;;;;;;;;;4.00;3.00;;;;;21.67;37.63;101693.00;5049952;28;46181;-73
2023/03/15 08:06:01;;;;;;;;;2.33;2.00;;;;;21.66;37.63;101689.50;5050093;28;45486;-73
2023/03/15 08:08:27;;;;;;;;;3.00;1.33;;;;;21.71;37.79;101689.03;5049539;28;45668;-76
2023/03/15 08:10:52;;;;;;;;;2.00;2.00;;;;;21.77;37.86;101700.81;5050486;28;45413;-74
2023/03/15 08:13:17;;;;;;;;;2.00;2.00;;;;;21.82;37.76;101702.00;5049011;28;45431;-75
2023/03/15 08:15:46;;;;;;;;;3.67;3.00;;;;;21.87;37.24;101700.69;5050552;28;45530;-75
2023/03/15 08:18:12;;;;;;;;;2.00;2.00;;;;;21.83;37.49;101693.06;5049546;28;45646;-75
2023/03/15 08:20:37;;;;;;;;;6.67;2.00;;;;;21.93;37.36;101698.28;5050965;28;46554;-74
2023/03/15 08:23:03;;;;;;;;;2.00;2.00;;;;;21.99;37.50;101702.09;5050344;28;46337;-75
2023/03/15 08:25:29;;;;;;;;;1.00;0.00;;;;;22.03;37.24;101708.75;5050508;28;45515;-75
2023/03/15 08:27:55;;;;;;;;;2.00;2.00;;;;;22.07;37.52;101704.78;5050908;28;45446;-75
2023/03/15 08:30:20;;;;;;;;;3.67;1.33;;;;;22.11;37.18;101712.44;5049851;28;45549;-75
2023/03/15 08:32:47;;;;;;;;;2.00;2.00;;;;;22.13;36.77;101716.59;5050082;28;46473;-74
2023/03/15 08:35:14;;;;;;;;;2.67;2.00;;;;;22.17;37.20;101717.09;5046949;28;45459;-75
2023/03/15 08:37:40;;;;;;;;;2.00;2.00;;;;;22.22;37.36;101721.94;5050377;28;45353;-75
2023/03/15 08:40:10;;;;;;;;;1.00;1.00;;;;;22.25;37.36;101724.25;5049382;28;45500;-75
2023/03/15 08:42:36;;;;;;;;;2.00;2.00;;;;;22.27;37.33;101722.28;5049412;28;46307;-75
2023/03/15 08:45:03;;;;;;;;;2.33;2.00;;;;;22.29;37.04;101726.44;5048906;28;45574;-76
2023/03/15 08:47:29;;;;;;;;;2.00;2.00;;;;;22.35;37.29;101724.13;5048927;28;45416;-75
2023/03/15 08:49:54;;;;;;;;;0.33;0.33;;;;;22.35;37.14;101718.81;5050147;28;45364;-75
2023/03/15 08:52:20;;;;;;;;;1.00;0.00;;;;;22.36;36.89;101712.50;5049426;28;46276;-75
2023/03/15 08:54:47;;;;;;;;;2.00;2.00;;;;;22.41;36.57;101715.50;5049930;28;45454;-75
2023/03/15 08:57:13;;;;;;;;;2.00;1.00;;;;;22.46;36.84;101722.97;5049179;28;45410;-75
2023/03/15 08:59:38;;;;;;;;;1.00;1.00;;;;;22.48;36.70;101724.47;5049735;28;45487;-75
2023/03/15 09:02:04;;;;;;;;;2.67;1.00;;;;;22.42;37.02;101706.56;5049245;28;46098;-74
2023/03/15 09:04:30;;;;;;;;;2.00;2.00;;;;;22.52;37.33;101717.03;5049762;28;45498;-75
2023/03/15 09:06:56;;;;;;;;;3.00;3.00;;;;;22.48;37.14;101710.41;5050375;28;45332;-75
2023/03/15 09:09:22;;;;;;;;;3.00;2.00;;;;;22.57;37.06;101725.34;5049799;28;45553;-75
2023/03/15 09:11:47;;;;;;;;;3.00;2.33;;;;;22.60;37.04;101732.13;5049676;28;47191;-75
2023/03/15 09:14:13;;;;;;;;;1.00;1.00;;;;;22.60;36.96;101726.84;5049427;28;45522;-75
2023/03/15 09:16:38;;;;;;;;;3.67;2.00;;;;;22.58;36.47;101723.50;5049904;28;45527;-75
2023/03/15 09:19:04;;;;;;;;;2.33;2.00;;;;;22.60;36.93;101730.31;5050074;28;45414;-75
2023/03/15 09:21:30;;;;;;;;;2.00;2.00;;;;;22.52;37.04;101707.25;5049720;28;47078;-75
2023/03/15 09:23:56;;;;;;;;;2.00;2.00;;;;;22.63;36.38;101722.03;5049852;28;45526;-75
2023/03/15 09:26:22;;;;;;;;;3.33;3.00;;;;;22.63;36.50;101719.38;5049234;28;45822;-75
2023/03/15 09:28:47;;;;;;;;;1.00;1.00;;;;;22.66;37.05;101714.75;5048660;28;45740;-75
2023/03/15 09:31:12;;;;;;;;;2.00;2.00;;;;;22.61;36.73;101712.59;5048969;28;45513;-75
2023/03/15 09:33:38;;;;;;;;;4.00;2.67;;;;;22.67;36.95;101713.72;5049654;28;45693;-75
2023/03/15 09:36:03;;;;;;;;;1.00;1.00;;;;;22.68;37.13;101720.72;5049084;28;45543;-75
2023/03/15 09:38:29;;;;;;;;;2.00;2.00;;;;;22.68;36.70;101716.25;5049276;28;45558;-75
2023/03/15 09:41:00;;;;;;;;;1.33;1.33;;;;;22.69;36.96;101712.56;5049443;28;46020;-75
2023/03/15 09:43:42;;;;;;;;;3.00;2.67;;;;;22.70;36.64;101706.31;5049517;28;45503;-72
2023/03/15 09:46:26;;;;;;;;;3.00;2.00;;;;;22.72;36.93;101716.75;5049012;28;45448;-75
2023/03/15 09:49:20;;;;;;;;;3.67;1.33;;;;;22.72;36.90;101717.59;5049484;28;45479;-75
2023/03/15 09:52:12;;;;;;;;;1.67;1.33;;;;;22.73;36.61;101716.59;5080857;27;46278;-75
2023/03/15 09:54:43;;;;;;;;;1.00;1.00;;;;;22.73;36.92;101718.44;4966298;28;45784;-75
2023/03/15 09:57:20;;;;;;;;;1.67;1.67;;;;;22.75;36.29;101719.09;4951627;28;45515;-74
2023/03/15 09:59:51;;;;;;;;;4.00;1.00;;;;;22.76;36.75;101718.09;4951250;28;45573;-74
2023/03/15 10:02:30;;;;;;;;;2.00;2.00;;;;;22.76;36.40;101712.81;4950233;28;45609;-75
2023/03/15 10:05:04;;;;;;;;;1.00;1.00;;;;;22.70;36.20;101705.47;4951592;28;45794;-73
2023/03/15 10:07:31;;;;;;;;;2.00;2.00;;;;;22.74;36.38;101723.56;4948037;28;45532;-75
2023/03/15 10:09:57;;;;;;;;;1.33;1.33;;;;;22.67;36.34;101705.78;4951341;28;45636;-73
2023/03/15 10:12:39;;;;;;;;;5.00;2.00;;;;;22.72;36.52;101704.31;4958651;28;46325;-73
2023/03/15 10:15:40;;;;;;;;;2.00;2.00;;;;;22.74;36.76;101709.50;4950629;28;45508;-75
2023/03/15 10:18:14;;;;;;;;;1.00;1.00;;;;;22.74;36.55;101714.78;4931156;28;45871;-75
2023/03/15 10:20:47;;;;;;;;;2.00;1.67;;;;;22.75;36.59;101703.16;4931514;28;45889;-75
2023/03/15 10:23:34;;;;;;;;;2.00;2.00;;;;;22.76;36.35;101704.84;4930278;28;46130;-75
2023/03/15 10:26:05;;;;;;;;;3.00;2.00;;;;;22.76;36.88;101701.34;4928338;28;45737;-74
2023/03/15 10:28:30;;;;;;;;;1.67;1.67;;;;;22.77;36.87;101703.84;4931468;28;45392;-74
2023/03/15 10:31:09;;;;;;;;;1.67;1.67;;;;;22.78;36.91;101705.50;4955388;28;45700;-75
2023/03/15 10:33:38;;;;;;;;;1.67;1.00;;;;;22.76;36.24;101699.53;5029004;28;46994;-75
2023/03/15 10:36:23;;;;;;;;;4.00;2.33;;;;;22.77;36.83;101701.19;5024006;28;45374;-75
2023/03/15 10:38:49;;;;;;;;;1.33;1.00;;;;;22.77;36.40;101703.03;5029575;28;45508;-75
2023/03/15 10:41:35;;;;;;;;;1.67;1.00;;;;;22.74;36.52;101699.69;5028467;28;45461;-75
2023/03/15 10:44:13;;;;;;;;;2.33;0.33;;;;;22.76;36.21;101699.53;5029203;28;47355;-75
2023/03/15 10:46:39;;;;;;;;;4.00;2.00;;;;;22.74;36.75;101701.53;5026145;28;46034;-75
2023/03/15 10:49:14;;;;;;;;;1.00;1.00;;;;;22.73;36.71;101698.03;5028995;28;46550;-74
2023/03/15 10:51:43;;;;;;;;;3.33;2.00;;;;;22.72;36.49;101706.97;5028893;28;45508;-75
2023/03/15 10:54:18;;;;;;;;;2.67;1.00;;;;;22.71;36.42;101705.34;5036379;28;46383;-75
2023/03/15 10:56:45;;;;;;;;;1.33;1.33;;;;;22.69;36.71;101703.81;5051405;28;45550;-75
2023/03/15 10:59:23;;;;;;;;;1.00;1.00;;;;;22.67;36.62;101703.97;5051712;28;45376;-73
2023/03/15 11:01:51;;;;;;;;;2.67;1.33;;;;;22.66;36.88;101704.13;5052106;28;45428;-73
2023/03/15 11:04:18;;;;;;;;;2.00;2.00;;;;;22.66;36.60;101710.28;5051213;28;47121;-75
2023/03/15 11:07:12;;;;;;;;;1.33;1.33;;;;;22.66;36.45;101710.28;5051034;28;45741;-73
2023/03/15 11:09:43;;;;;;;;;0.67;0.67;;;;;22.65;36.49;101705.94;5051101;28;45930;-73
2023/03/15 11:12:15;;;;;;;;;2.67;2.67;;;;;22.59;36.33;101702.13;5050228;28;45522;-75
2023/03/15 11:14:45;;;;;;;;;1.33;1.33;;;;;22.63;36.69;101702.63;5051358;28;45466;-74
2023/03/15 11:17:17;;;;;;;;;6.33;2.00;;;;;22.62;36.73;101695.66;5051338;27;45513;-76
2023/03/15 11:19:52;;;;;;;;;1.00;1.00;;;;;22.60;35.80;101697.66;5051544;28;45453;-75
2023/03/15 11:22:17;;;;;;;;;1.00;1.00;;;;;22.58;36.31;101691.69;5049832;28;45641;-74
2023/03/15 11:24:43;;;;;;;;;4.33;2.00;;;;;22.58;36.39;101697.00;5051239;28;45419;-74
2023/03/15 11:27:13;;;;;;;;;2.00;1.33;;;;;22.56;36.56;101699.78;5050568;28;45554;-74